createdAt,value
2022-07-26T04:04:37.070Z,19.64
2022-07-26T04:08:48.919Z,19.58
2022-07-26T04:13:00.467Z,19.50
2022-07-26T04:17:12.056Z,19.46
2022-07-26T04:21:23.964Z,19.49
2022-07-26T04:25:38.455Z,19.41
2022-07-26T04:29:52.312Z,19.43
2022-07-26T04:34:03.997Z,19.39
2022-07-26T04:38:15.667Z,19.43
2022-07-26T04:42:27.240Z,19.38
2022-07-26T04:46:38.924Z,19.26
2022-07-26T04:50:56.668Z,19.23
2022-07-26T04:55:09.758Z,19.11
2022-07-26T04:59:22.056Z,19.12
2022-07-26T05:03:34.947Z,19.07
2022-07-26T05:07:51.787Z,19.13
2022-07-26T05:12:03.736Z,19.26
2022-07-26T05:16:15.344Z,19.20
2022-07-26T05:20:27.491Z,19.04
2022-07-26T05:24:39.023Z,18.99
2022-07-26T05:28:50.578Z,19.09
2022-07-26T05:33:02.131Z,19.21
2022-07-26T05:37:13.716Z,19.35
2022-07-26T05:41:25.274Z,19.69
2022-07-26T05:45:36.857Z,25.02
2022-07-26T05:49:48.408Z,28.68
2022-07-26T05:54:00.132Z,30.82
2022-07-26T05:58:12.008Z,32.04
2022-07-26T06:02:23.663Z,33.68
2022-07-26T06:06:35.227Z,33.25
2022-07-26T06:10:48.579Z,34.23
2022-07-26T06:15:00.163Z,35.03
2022-07-26T06:19:11.749Z,35.91
2022-07-26T06:23:33.866Z,35.69
2022-07-26T06:27:46.468Z,35.74
2022-07-26T06:31:58.135Z,35.93
2022-07-26T06:36:10.091Z,35.46
2022-07-26T06:40:21.633Z,36.15
2022-07-26T06:44:33.193Z,36.10
2022-07-26T06:48:47.351Z,33.44
2022-07-26T06:53:04.148Z,31.34
2022-07-26T07:02:28.936Z,29.57
2022-07-26T07:06:40.623Z,29.35
2022-07-26T07:10:53.092Z,28.53
2022-07-26T07:15:06.751Z,28.35
2022-07-26T07:19:18.331Z,28.44
2022-07-26T07:23:29.850Z,27.43
2022-07-26T07:27:41.733Z,27.32
2022-07-26T07:31:53.324Z,27.28
2022-07-26T07:36:08.302Z,27.28
2022-07-26T07:40:20.431Z,27.13
2022-07-26T07:44:31.992Z,27.01
2022-07-26T07:48:47.532Z,27.12
2022-07-26T07:52:59.464Z,26.88
2022-07-26T07:57:13.930Z,26.70
2022-07-26T08:01:25.702Z,26.95
2022-07-26T08:05:52.305Z,26.69
2022-07-26T08:10:05.050Z,26.81
2022-07-26T08:14:16.636Z,26.35
2022-07-26T08:18:29.520Z,26.25
2022-07-26T08:22:41.815Z,25.94
2022-07-26T08:26:54.044Z,26.24
2022-07-26T08:31:05.969Z,25.86
2022-07-26T08:35:19.838Z,25.58
2022-07-26T08:39:31.691Z,25.66
2022-07-26T08:43:48.910Z,25.64
2022-07-26T08:48:19.432Z,25.64
2022-07-26T08:52:31.052Z,25.82
2022-07-26T08:56:52.980Z,25.99
2022-07-26T09:01:07.242Z,25.48
2022-07-26T09:05:20.682Z,25.05
2022-07-26T09:09:34.071Z,24.89
2022-07-26T09:13:54.890Z,24.88
2022-07-26T09:18:06.437Z,24.52
2022-07-26T09:22:17.986Z,24.45
2022-07-26T09:26:30.370Z,24.23
2022-07-26T09:30:55.034Z,24.37
2022-07-26T09:35:45.951Z,24.28
2022-07-26T09:40:01.096Z,24.25
2022-07-26T09:44:26.054Z,24.65
2022-07-26T09:49:09.339Z,24.69
2022-07-26T09:53:13.028Z,24.26
2022-07-26T09:57:25.214Z,24.53
2022-07-26T10:01:36.757Z,24.75
2022-07-26T10:05:48.312Z,24.95
2022-07-26T10:10:07.052Z,25.25
2022-07-26T10:57:32.971Z,25.90
2022-07-26T11:01:45.432Z,26.29
2022-07-26T11:05:57.000Z,26.63
2022-07-26T11:10:09.100Z,26.47
2022-07-26T11:14:20.721Z,26.08
2022-07-26T11:18:36.151Z,25.53
2022-07-26T11:22:48.433Z,25.13
2022-07-26T11:27:04.210Z,25.06
2022-07-26T11:31:17.342Z,25.17
2022-07-26T11:35:31.829Z,25.20
2022-07-26T11:39:43.375Z,25.16
2022-07-26T11:44:00.447Z,25.00
2022-07-26T11:48:13.863Z,25.17
2022-07-26T11:52:29.429Z,25.15
2022-07-26T11:56:56.917Z,25.27
2022-07-26T12:01:09.504Z,25.46
2022-07-26T12:05:23.573Z,25.68
2022-07-26T12:09:40.849Z,25.60
2022-07-26T12:13:55.721Z,25.69
2022-07-26T12:18:07.701Z,25.73
2022-07-26T12:22:21.198Z,25.84
2022-07-26T12:26:33.879Z,25.93
2022-07-26T12:30:45.456Z,25.88
2022-07-26T12:35:01.172Z,25.58
2022-07-26T12:39:21.421Z,25.61
2022-07-26T12:43:42.083Z,25.48
2022-07-26T12:47:55.848Z,25.52
2022-07-26T12:52:07.408Z,25.55
2022-07-26T12:56:19.098Z,25.55
2022-07-26T13:00:30.756Z,25.63
2022-07-26T13:04:42.401Z,25.75
2022-07-26T13:08:54.065Z,25.84
2022-07-26T13:13:05.623Z,25.81
2022-07-26T13:17:17.448Z,25.60
2022-07-26T13:21:33.375Z,25.63
2022-07-26T13:25:45.231Z,25.68
2022-07-26T13:29:56.803Z,25.63
2022-07-26T13:34:08.934Z,25.62
2022-07-26T13:38:20.971Z,25.77
2022-07-26T13:42:32.538Z,25.60
2022-07-26T13:46:44.123Z,25.76
2022-07-26T13:50:57.476Z,25.80
2022-07-26T13:55:09.021Z,25.88
2022-07-26T13:59:20.822Z,25.87
2022-07-26T14:03:35.522Z,25.67
2022-07-26T14:07:47.240Z,25.85
2022-07-26T14:11:58.912Z,25.92
2022-07-26T14:16:10.557Z,25.82
2022-07-26T14:20:22.163Z,25.79
2022-07-26T14:24:33.818Z,25.74
2022-07-26T14:28:45.806Z,25.78
2022-07-26T14:32:57.363Z,25.93
2022-07-26T14:37:42.165Z,26.49
2022-07-26T14:41:41.196Z,26.66
2022-07-26T14:45:52.829Z,26.82
2022-07-26T14:50:08.105Z,27.02
2022-07-26T14:54:20.066Z,27.18
2022-07-26T14:58:31.659Z,27.30
2022-07-26T15:02:48.606Z,27.35
2022-07-26T15:07:00.262Z,27.14
2022-07-26T15:11:11.875Z,27.30
2022-07-26T15:15:23.590Z,27.06
2022-07-26T15:19:35.328Z,26.53
2022-07-26T15:23:46.980Z,26.17
2022-07-26T15:27:58.668Z,25.94
2022-07-26T15:32:10.311Z,25.85
2022-07-26T15:36:21.926Z,25.71
2022-07-26T15:40:33.819Z,25.52
2022-07-26T15:44:45.574Z,25.37
2022-07-26T15:48:57.265Z,25.22
2022-07-26T15:53:09.387Z,25.12
2022-07-26T15:57:20.915Z,25.27
2022-07-26T16:01:33.240Z,25.26
2022-07-26T16:05:47.853Z,25.20
2022-07-26T16:10:01.987Z,25.29
2022-07-26T16:14:13.845Z,25.19
2022-07-26T16:18:26.555Z,25.09
2022-07-26T16:22:41.635Z,24.99
2022-07-26T16:26:53.258Z,24.93
2022-07-26T16:31:05.174Z,25.00
2022-07-26T16:35:17.960Z,25.20
2022-07-26T16:39:30.075Z,25.14
2022-07-26T16:43:45.716Z,25.09
2022-07-26T16:48:00.054Z,24.88
2022-07-26T16:52:18.710Z,24.78
2022-07-26T16:56:33.941Z,24.53
2022-07-26T17:00:48.076Z,24.55
2022-07-26T17:05:00.117Z,24.65
2022-07-26T17:09:15.096Z,24.68
2022-07-26T17:13:30.747Z,24.78
2022-07-26T17:17:57.894Z,24.63
2022-07-26T17:22:15.380Z,24.64
2022-07-26T17:26:38.689Z,24.64
2022-07-26T17:30:53.285Z,24.58
2022-07-26T17:35:11.526Z,24.53
2022-07-26T17:39:50.779Z,24.41
2022-07-26T17:44:08.370Z,24.32
2022-07-26T17:48:24.673Z,24.21
2022-07-26T17:52:45.919Z,24.20
2022-07-26T17:57:16.511Z,24.15
2022-07-26T18:01:50.534Z,24.19
2022-07-26T18:06:06.666Z,24.28
2022-07-26T18:10:25.731Z,24.44
2022-07-26T18:14:39.151Z,24.54
2022-07-26T18:19:00.629Z,24.48
2022-07-26T18:23:18.871Z,24.43
2022-07-26T18:27:30.483Z,24.32
2022-07-26T18:31:42.532Z,24.25
2022-07-26T18:35:54.243Z,24.15
2022-07-26T18:40:06.602Z,24.08
2022-07-26T18:44:18.141Z,23.96
2022-07-26T18:48:29.787Z,23.75
2022-07-26T18:52:41.477Z,23.57
2022-07-26T18:56:53.055Z,23.36
2022-07-26T19:01:04.999Z,23.23
2022-07-26T19:05:16.654Z,23.08
2022-07-26T19:09:28.201Z,22.87
2022-07-26T19:13:40.197Z,22.72
2022-07-26T19:17:51.864Z,22.54
2022-07-26T19:22:04.620Z,22.38
2022-07-26T19:26:27.548Z,22.18
2022-07-26T19:30:39.567Z,22.12
2022-07-26T19:34:51.947Z,22.00
2022-07-26T19:39:04.323Z,21.88
2022-07-26T19:43:15.921Z,21.72
2022-07-26T19:47:29.581Z,21.66
2022-07-26T19:51:41.571Z,21.65
2022-07-26T19:55:53.132Z,21.40
2022-07-26T20:00:07.459Z,21.34
2022-07-26T20:04:25.003Z,21.28
2022-07-26T20:08:36.601Z,21.22
2022-07-26T20:12:48.187Z,21.12
2022-07-26T20:16:59.780Z,21.12
2022-07-26T20:21:11.392Z,21.05
2022-07-26T20:25:23.616Z,21.07
2022-07-26T20:29:35.300Z,20.97
2022-07-26T20:33:46.854Z,20.86
2022-07-26T20:37:58.414Z,20.88
2022-07-26T20:42:14.872Z,20.91
2022-07-26T20:46:33.455Z,20.89
2022-07-26T20:50:45.076Z,20.85
2022-07-26T20:54:56.612Z,20.87
2022-07-26T20:59:08.457Z,20.90
2022-07-26T21:03:20.193Z,20.92
2022-07-26T21:07:55.164Z,20.87
2022-07-26T21:12:03.771Z,20.78
2022-07-26T21:16:15.456Z,20.69
2022-07-26T21:20:27.066Z,20.57
2022-07-26T21:24:38.694Z,20.60
2022-07-26T21:28:50.273Z,20.51
